Marseillais 6 — FQSJ — position and weather

sailwx.info

Track history (hours):
 
Tides and Currents Weather Stations Pressure Air Temp Water Temp Dewpoint Dewpoint Depression Visibility Wind Speed Wind Dir Waves Ship Positions

Marseillais 6

Last reported at 2014-Oct-22 13:33 UTC. Time now 2014-Oct-22 13:49 UTC.
Position N 43°24' E 004°59'.

Length 35 m; draft 5 m.

Type: Tug. MMSI: 227016900.

Date/timePositionNaut miles runAvg speedWind from/ knotsBaromVisibWave heightAir tempDewpointWater temp
2014-Oct-22 13:33N 43°24' E 004°59'0 0.0
2014-Oct-22 12:33N 43°24' E 004°59'0 0.0
2014-Oct-22 11:33N 43°24' E 004°59'0 0.0
2014-Oct-22 10:33N 43°24' E 004°59'0 0.0
2014-Oct-22 09:33N 43°24' E 004°59'0 0.0
2014-Oct-22 08:33N 43°24' E 004°59'0 0.0
2014-Oct-22 07:33N 43°24' E 004°59'0 0.4
2014-Oct-22 06:34N 43°24' E 004°59'0 0.4
2014-Oct-22 05:33N 43°24' E 004°59'0 0.0
2014-Oct-22 04:33N 43°24' E 004°59'0 0.0
2014-Oct-22 03:33N 43°24' E 004°59'0 0.0
2014-Oct-22 02:33N 43°24' E 004°59'0 0.5
2014-Oct-22 01:34N 43°24' E 004°60'0 0.5
2014-Oct-22 00:33N 43°24' E 004°59'0 0.0
2014-Oct-21 23:33N 43°24' E 004°59'1 0.6
2014-Oct-21 22:33N 43°24' E 004°60'1 0.6
2014-Oct-21 21:33N 43°24' E 004°59'0 0.0
2014-Oct-21 20:33N 43°24' E 004°59'0 0.0
2014-Oct-21 19:33N 43°24' E 004°59'0 0.0
2014-Oct-21 18:33N 43°24' E 004°59'0 0.0
2014-Oct-21 17:33N 43°24' E 004°59'0 0.0
2014-Oct-21 16:33N 43°24' E 004°59'4 4.2
2014-Oct-21 15:34N 43°24' E 004°53'1 1.4
2014-Oct-21 14:34N 43°24' E 004°55'3 2.9
2014-Oct-21 13:33N 43°24' E 004°59'0 0.0
2014-Oct-21 12:33N 43°24' E 004°59'0 0.0
2014-Oct-21 11:33N 43°24' E 004°59'4 4.4
2014-Oct-21 10:33N 43°25' E 004°53'3 3.4
2014-Oct-21 09:33N 43°23' E 004°57'1 1.3
2014-Oct-21 08:33N 43°24' E 004°59'0 0.0
2014-Oct-21 07:33N 43°24' E 004°59'0 0.0
2014-Oct-21 06:33N 43°24' E 004°59'0 0.0
2014-Oct-21 05:33N 43°24' E 004°59'0 0.0
2014-Oct-21 04:33N 43°24' E 004°59'0 0.0
2014-Oct-21 03:33N 43°24' E 004°59'0 0.0
2014-Oct-21 02:33N 43°24' E 004°59'0 0.0
2014-Oct-21 01:33N 43°24' E 004°59'0 0.0
2014-Oct-21 00:33N 43°24' E 004°59'0 0.0
2014-Oct-20 23:33N 43°24' E 004°59'0 0.0
2014-Oct-20 22:33N 43°24' E 004°59'0 0.0
2014-Oct-20 21:33N 43°24' E 004°59'0 0.0
2014-Oct-20 20:33N 43°24' E 004°59'0 0.0
2014-Oct-20 19:33N 43°24' E 004°59'0 0.0
2014-Oct-20 18:33N 43°24' E 004°59'0 0.0
2014-Oct-20 17:33N 43°24' E 004°59'0 0.0
2014-Oct-20 16:33N 43°24' E 004°59'0 0.0
2014-Oct-20 15:33N 43°24' E 004°59'0 0.0
2014-Oct-20 14:33N 43°24' E 004°59'0 0.0
2014-Oct-20 13:33N 43°24' E 004°59'0 0.0
2014-Oct-20 12:33N 43°24' E 004°59'0 0.0
2014-Oct-20 11:33N 43°24' E 004°59'0 0.0
2014-Oct-20 10:33N 43°24' E 004°59'0 0.0
2014-Oct-20 09:33N 43°24' E 004°59'0 0.0
2014-Oct-20 08:33N 43°24' E 004°59'0 0.0
2014-Oct-20 07:33N 43°24' E 004°59'0 0.0
2014-Oct-20 06:34N 43°24' E 004°59'0 0.0
2014-Oct-20 05:33N 43°24' E 004°59'0 0.0
2014-Oct-20 04:33N 43°24' E 004°59'0 0.0
2014-Oct-20 03:33N 43°24' E 004°59'0 0.0
2014-Oct-20 02:33N 43°24' E 004°59'0 0.0
2014-Oct-20 01:33N 43°24' E 004°59'0 0.0
2014-Oct-20 00:33N 43°24' E 004°59'0 0.0
2014-Oct-19 23:33N 43°24' E 004°59'0 0.0
2014-Oct-19 22:33N 43°24' E 004°59'0 0.0
2014-Oct-19 21:33N 43°24' E 004°59'0 0.0
2014-Oct-19 20:33N 43°24' E 004°59'0 0.0
2014-Oct-19 19:33N 43°24' E 004°59'4 4.1
2014-Oct-19 18:33N 43°24' E 004°53'4 4.1
2014-Oct-19 17:33N 43°24' E 004°59'4 4.1
2014-Oct-19 16:34N 43°24' E 004°53'2 2.2
2014-Oct-19 15:34N 43°25' E 004°51'6 6.1
2014-Oct-19 14:34N 43°23' E 004°59'0 0.4
2014-Oct-19 13:33N 43°24' E 004°59'0 0.0
2014-Oct-19 12:33N 43°24' E 004°59'0 0.0
2014-Oct-19 11:33N 43°24' E 004°59'0 0.0
2014-Oct-19 10:33N 43°24' E 004°59'0 0.0
2014-Oct-19 09:33N 43°24' E 004°59'0 0.0
2014-Oct-19 08:33N 43°24' E 004°59'0 0.0
2014-Oct-19 07:33N 43°24' E 004°59'0 0.0
2014-Oct-19 06:33N 43°24' E 004°59'0 0.0
2014-Oct-19 05:33N 43°24' E 004°59'0 0.0
2014-Oct-19 04:33N 43°24' E 004°59'0 0.0
2014-Oct-19 03:33N 43°24' E 004°59'0 0.0
2014-Oct-19 02:33N 43°24' E 004°59'0 0.0
2014-Oct-19 01:33N 43°24' E 004°59'0 0.0
2014-Oct-19 00:33N 43°24' E 004°59'0 0.0
2014-Oct-18 23:33N 43°24' E 004°59'0 0.0
2014-Oct-18 22:33N 43°24' E 004°59'0 0.0
2014-Oct-18 21:33N 43°24' E 004°59'0 0.0
2014-Oct-18 20:33N 43°24' E 004°59'0 0.0
2014-Oct-18 19:33N 43°24' E 004°59'0 0.4
2014-Oct-18 18:33N 43°24' E 004°60'0 0.4
2014-Oct-18 17:33N 43°24' E 004°59'0 0.0
2014-Oct-18 16:33N 43°24' E 004°59'0 0.0
2014-Oct-18 15:33N 43°24' E 004°59'0 0.0
2014-Oct-18 14:33N 43°24' E 004°59'0 0.0
2014-Oct-18 13:33N 43°24' E 004°59'0 0.0
2014-Oct-18 12:33N 43°24' E 004°59'0 0.0
2014-Oct-18 11:33N 43°24' E 004°59'0 0.0
2014-Oct-18 10:33N 43°24' E 004°59'0 0.0
2014-Oct-18 09:33N 43°24' E 004°59'0 0.0
2014-Oct-18 08:33N 43°24' E 004°59'0 0.0
2014-Oct-18 07:33N 43°24' E 004°59'3 2.7
2014-Oct-18 06:33N 43°24' E 004°55'2 2.1
2014-Oct-18 05:33N 43°26' E 004°54'0 0.0
2014-Oct-18 04:33N 43°26' E 004°54'0 0.0
2014-Oct-18 03:33N 43°26' E 004°54'1 0.7
2014-Oct-18 02:33N 43°25' E 004°53'0 0.3
2014-Oct-18 01:33N 43°25' E 004°53'1 1.1
2014-Oct-18 00:33N 43°26' E 004°54'0 0.0
2014-Oct-17 23:33N 43°26' E 004°54'0 0.0
2014-Oct-17 22:33N 43°26' E 004°54'0 0.0
2014-Oct-17 21:33N 43°26' E 004°54'0 0.0
2014-Oct-17 20:33N 43°26' E 004°54'0 0.0
2014-Oct-17 19:33N 43°26' E 004°54'0 0.0
2014-Oct-17 18:33N 43°26' E 004°54'3 2.6
2014-Oct-17 17:34N 43°25' E 004°51'2 1.6
2014-Oct-17 16:34N 43°24' E 004°53'2 1.9
2014-Oct-17 15:33N 43°26' E 004°54'0 0.0
2014-Oct-17 14:33N 43°26' E 004°54'0 0.0
2014-Oct-17 13:33N 43°26' E 004°54'0 0.0
2014-Oct-17 12:33N 43°26' E 004°54'0 0.0
2014-Oct-17 11:33N 43°26' E 004°54'0 0.0
2014-Oct-17 10:33N 43°26' E 004°54'1 1.1
2014-Oct-17 09:33N 43°25' E 004°53'1 1.0
2014-Oct-17 08:34N 43°26' E 004°54'0 0.1
2014-Oct-17 07:33N 43°26' E 004°54'0 0.0
2014-Oct-17 06:33N 43°26' E 004°54'0 0.0
2014-Oct-17 05:33N 43°26' E 004°54'0 0.0
2014-Oct-17 04:33N 43°26' E 004°54'1 1.2
2014-Oct-17 03:33N 43°25' E 004°53'1 0.8
2014-Oct-17 02:34N 43°24' E 004°52'1 1.3
2014-Oct-17 01:33N 43°25' E 004°51'2 2.1
2014-Oct-17 00:33N 43°25' E 004°53'0 0.4
2014-Oct-16 23:33N 43°26' E 004°54'0 0.0
2014-Oct-16 22:33N 43°26' E 004°54'0 0.0
2014-Oct-16 21:33N 43°26' E 004°54'0 0.0
2014-Oct-16 20:33N 43°26' E 004°54'0 0.0
2014-Oct-16 19:33N 43°26' E 004°54'0 0.0
2014-Oct-16 18:33N 43°26' E 004°54'0 0.0
2014-Oct-16 17:33N 43°26' E 004°54'0 0.0
2014-Oct-16 16:33N 43°26' E 004°54'0 0.0
2014-Oct-16 15:33N 43°26' E 004°54'0 0.0
2014-Oct-16 14:33N 43°26' E 004°54'0 0.0
2014-Oct-16 13:33N 43°26' E 004°54'0 0.0
2014-Oct-16 12:33N 43°26' E 004°54'0 0.0
2014-Oct-16 11:33N 43°26' E 004°54'0 0.0
2014-Oct-16 10:33N 43°26' E 004°54'0 0.0
2014-Oct-16 09:33N 43°26' E 004°54'0 0.0
2014-Oct-16 08:33N 43°26' E 004°54'0 0.0
2014-Oct-16 07:33N 43°26' E 004°54'0 0.0
2014-Oct-16 06:33N 43°26' E 004°54'0 0.0
2014-Oct-16 05:33N 43°26' E 004°54'0 0.0
2014-Oct-16 04:33N 43°26' E 004°54'0 0.0
2014-Oct-16 03:33N 43°26' E 004°54'2 2.4
2014-Oct-16 02:33N 43°25' E 004°51'1 1.4
2014-Oct-16 01:33N 43°25' E 004°53'1 1.1
2014-Oct-16 00:33N 43°26' E 004°54'0 0.0
2014-Oct-15 23:33N 43°26' E 004°54'0 0.0
2014-Oct-15 22:33N 43°26' E 004°54'0 0.0
2014-Oct-15 21:33N 43°26' E 004°54'0 0.0
2014-Oct-15 20:33N 43°26' E 004°54'0 0.0
2014-Oct-15 19:33N 43°26' E 004°54'0 0.0
2014-Oct-15 18:33N 43°26' E 004°54'3 2.7
2014-Oct-15 17:33N 43°25' E 004°50'3 2.7
2014-Oct-15 16:33N 43°26' E 004°54'0 0.0
2014-Oct-15 15:33N 43°26' E 004°54'0 0.0
2014-Oct-15 14:33N 43°26' E 004°54'0 0.0
2014-Oct-15 13:33N 43°26' E 004°54'0 0.0
2014-Oct-15 12:33N 43°26' E 004°54'0 0.0
2014-Oct-15 11:33N 43°26' E 004°54'1 1.2
2014-Oct-15 10:33N 43°25' E 004°53'0 0.0
2014-Oct-15 09:34N 43°25' E 004°53'1 1.1
2014-Oct-15 08:33N 43°26' E 004°54'0 0.0
2014-Oct-15 07:33N 43°26' E 004°54'0 0.0
2014-Oct-15 06:33N 43°26' E 004°54'0 0.0
2014-Oct-15 05:33N 43°26' E 004°54'0 0.0
2014-Oct-15 04:33N 43°26' E 004°54'0 0.0
2014-Oct-15 03:33N 43°26' E 004°54'0 0.0
2014-Oct-15 02:33N 43°26' E 004°54'0 0.0
2014-Oct-15 01:33N 43°26' E 004°54'0 0.0
2014-Oct-15 00:33N 43°26' E 004°54'0 0.0
2014-Oct-14 23:33N 43°26' E 004°54'0 0.0
2014-Oct-14 22:33N 43°26' E 004°54'0 0.0
2014-Oct-14 21:33N 43°26' E 004°54'0 0.0
2014-Oct-14 20:33N 43°26' E 004°54'2 2.3
2014-Oct-14 19:33N 43°27' E 004°51'2 2.4
2014-Oct-14 18:34N 43°25' E 004°53'1 1.1
2014-Oct-14 17:33N 43°26' E 004°54'0 0.0
2014-Oct-14 16:33N 43°26' E 004°54'0 0.0
2014-Oct-14 15:33N 43°26' E 004°54'0 0.0
2014-Oct-14 14:33N 43°26' E 004°54'0 0.0
2014-Oct-14 13:33N 43°26' E 004°54'0 0.0
2014-Oct-14 12:33N 43°26' E 004°54'0 0.0
2014-Oct-14 11:33N 43°26' E 004°54'0 0.0
2014-Oct-14 10:33N 43°26' E 004°54'0 0.0
2014-Oct-14 09:33N 43°26' E 004°54'0 0.0
2014-Oct-14 08:33N 43°26' E 004°54'0 0.0
2014-Oct-14 07:33N 43°26' E 004°54'0 0.0
2014-Oct-14 06:33N 43°26' E 004°54'0 0.0
2014-Oct-14 05:33N 43°26' E 004°54'0 0.0
2014-Oct-14 04:33N 43°26' E 004°54'0 0.0
2014-Oct-14 03:33N 43°26' E 004°54'0 0.0
2014-Oct-14 02:33N 43°26' E 004°54'0 0.0
2014-Oct-14 01:33N 43°26' E 004°54'0 0.0
2014-Oct-14 00:33N 43°26' E 004°54'0 0.0
2014-Oct-13 23:33N 43°26' E 004°54'4 3.9
2014-Oct-13 22:33N 43°23' E 004°58'6 6.0
2014-Oct-13 21:33N 43°25' E 004°50'3 2.7
2014-Oct-13 20:33N 43°26' E 004°54'0 0.0
2014-Oct-13 19:33N 43°26' E 004°54'0 0.0
2014-Oct-13 18:33N 43°26' E 004°54'0 0.0
2014-Oct-13 17:33N 43°26' E 004°54'0 0.0
2014-Oct-13 16:33N 43°26' E 004°54'0 0.0
2014-Oct-13 15:33N 43°26' E 004°54'0 0.0
2014-Oct-13 14:33N 43°26' E 004°54'0 0.0
2014-Oct-13 13:33N 43°26' E 004°54'0 0.0
2014-Oct-13 12:33N 43°26' E 004°54'0 0.0
2014-Oct-13 11:33N 43°26' E 004°54'0 0.0
2014-Oct-13 10:33N 43°26' E 004°54'0 0.0
2014-Oct-13 09:33N 43°26' E 004°54'0 0.0
2014-Oct-13 08:22N 43°26' E 004°54'1 0.8
2014-Oct-13 07:16N 43°25' E 004°54'2 3.4
2014-Oct-13 06:33N 43°24' E 004°57'5 5.0
2014-Oct-13 05:33N 43°25' E 004°50'2 2.1
2014-Oct-13 04:33N 43°25' E 004°53'1 0.8
2014-Oct-13 03:33N 43°26' E 004°54'0 0.0
2014-Oct-13 02:33N 43°26' E 004°54'0 0.0
2014-Oct-13 01:33N 43°26' E 004°54'0 0.0
2014-Oct-13 00:33N 43°26' E 004°54'0 0.0
2014-Oct-12 23:33N 43°26' E 004°54'0 0.0
2014-Oct-12 22:33N 43°26' E 004°54'3 2.6
2014-Oct-12 21:33N 43°25' E 004°51'3 2.6
2014-Oct-12 20:33N 43°26' E 004°54'0 0.4
2014-Oct-12 19:34N 43°26' E 004°53'0 0.4
2014-Oct-12 18:33N 43°26' E 004°54'0 0.0
2014-Oct-12 17:33N 43°26' E 004°54'0 0.0
2014-Oct-12 16:33N 43°26' E 004°54'0 0.0
2014-Oct-12 15:33N 43°26' E 004°54'0 0.0
2014-Oct-12 14:33N 43°26' E 004°54'0 0.0
2014-Oct-12 13:33N 43°26' E 004°54'  
Track history (hours):
 
Tides and Currents Weather Stations Pressure Air Temp Water Temp Dewpoint Dewpoint Depression Visibility Wind Speed Wind Dir Waves Ship Positions

Marseillais 6

Last reported at 2014-Oct-22 13:33 UTC. Time now 2014-Oct-22 13:49 UTC.
Position N 43°24' E 004°59'.

Length 35 m; draft 5 m.

Type: Tug. MMSI: 227016900.

Date/timePositionNaut miles runAvg speedWind from/ knotsBaromVisibWave heightAir tempDewpointWater temp
2014-Oct-22 13:33N 43°24' E 004°59'0 0.0
2014-Oct-22 12:33N 43°24' E 004°59'0 0.0
2014-Oct-22 11:33N 43°24' E 004°59'0 0.0
2014-Oct-22 10:33N 43°24' E 004°59'0 0.0
2014-Oct-22 09:33N 43°24' E 004°59'0 0.0
2014-Oct-22 08:33N 43°24' E 004°59'0 0.0
2014-Oct-22 07:33N 43°24' E 004°59'0 0.4
2014-Oct-22 06:34N 43°24' E 004°59'0 0.4
2014-Oct-22 05:33N 43°24' E 004°59'0 0.0
2014-Oct-22 04:33N 43°24' E 004°59'0 0.0
2014-Oct-22 03:33N 43°24' E 004°59'0 0.0
2014-Oct-22 02:33N 43°24' E 004°59'0 0.5
2014-Oct-22 01:34N 43°24' E 004°60'0 0.5
2014-Oct-22 00:33N 43°24' E 004°59'0 0.0
2014-Oct-21 23:33N 43°24' E 004°59'1 0.6
2014-Oct-21 22:33N 43°24' E 004°60'1 0.6
2014-Oct-21 21:33N 43°24' E 004°59'0 0.0
2014-Oct-21 20:33N 43°24' E 004°59'0 0.0
2014-Oct-21 19:33N 43°24' E 004°59'0 0.0
2014-Oct-21 18:33N 43°24' E 004°59'0 0.0
2014-Oct-21 17:33N 43°24' E 004°59'0 0.0
2014-Oct-21 16:33N 43°24' E 004°59'4 4.2
2014-Oct-21 15:34N 43°24' E 004°53'1 1.4
2014-Oct-21 14:34N 43°24' E 004°55'3 2.9
2014-Oct-21 13:33N 43°24' E 004°59'0 0.0
2014-Oct-21 12:33N 43°24' E 004°59'0 0.0
2014-Oct-21 11:33N 43°24' E 004°59'4 4.4
2014-Oct-21 10:33N 43°25' E 004°53'3 3.4
2014-Oct-21 09:33N 43°23' E 004°57'1 1.3
2014-Oct-21 08:33N 43°24' E 004°59'0 0.0
2014-Oct-21 07:33N 43°24' E 004°59'0 0.0
2014-Oct-21 06:33N 43°24' E 004°59'0 0.0
2014-Oct-21 05:33N 43°24' E 004°59'0 0.0
2014-Oct-21 04:33N 43°24' E 004°59'0 0.0
2014-Oct-21 03:33N 43°24' E 004°59'0 0.0
2014-Oct-21 02:33N 43°24' E 004°59'0 0.0
2014-Oct-21 01:33N 43°24' E 004°59'0 0.0
2014-Oct-21 00:33N 43°24' E 004°59'0 0.0
2014-Oct-20 23:33N 43°24' E 004°59'0 0.0
2014-Oct-20 22:33N 43°24' E 004°59'0 0.0
2014-Oct-20 21:33N 43°24' E 004°59'0 0.0
2014-Oct-20 20:33N 43°24' E 004°59'0 0.0
2014-Oct-20 19:33N 43°24' E 004°59'0 0.0
2014-Oct-20 18:33N 43°24' E 004°59'0 0.0
2014-Oct-20 17:33N 43°24' E 004°59'0 0.0
2014-Oct-20 16:33N 43°24' E 004°59'0 0.0
2014-Oct-20 15:33N 43°24' E 004°59'0 0.0
2014-Oct-20 14:33N 43°24' E 004°59'0 0.0
2014-Oct-20 13:33N 43°24' E 004°59'0 0.0
2014-Oct-20 12:33N 43°24' E 004°59'0 0.0
2014-Oct-20 11:33N 43°24' E 004°59'0 0.0
2014-Oct-20 10:33N 43°24' E 004°59'0 0.0
2014-Oct-20 09:33N 43°24' E 004°59'0 0.0
2014-Oct-20 08:33N 43°24' E 004°59'0 0.0
2014-Oct-20 07:33N 43°24' E 004°59'0 0.0
2014-Oct-20 06:34N 43°24' E 004°59'0 0.0
2014-Oct-20 05:33N 43°24' E 004°59'0 0.0
2014-Oct-20 04:33N 43°24' E 004°59'0 0.0
2014-Oct-20 03:33N 43°24' E 004°59'0 0.0
2014-Oct-20 02:33N 43°24' E 004°59'0 0.0
2014-Oct-20 01:33N 43°24' E 004°59'0 0.0
2014-Oct-20 00:33N 43°24' E 004°59'0 0.0
2014-Oct-19 23:33N 43°24' E 004°59'0 0.0
2014-Oct-19 22:33N 43°24' E 004°59'0 0.0
2014-Oct-19 21:33N 43°24' E 004°59'0 0.0
2014-Oct-19 20:33N 43°24' E 004°59'0 0.0
2014-Oct-19 19:33N 43°24' E 004°59'4 4.1
2014-Oct-19 18:33N 43°24' E 004°53'4 4.1
2014-Oct-19 17:33N 43°24' E 004°59'4 4.1
2014-Oct-19 16:34N 43°24' E 004°53'2 2.2
2014-Oct-19 15:34N 43°25' E 004°51'6 6.1
2014-Oct-19 14:34N 43°23' E 004°59'0 0.4
2014-Oct-19 13:33N 43°24' E 004°59'0 0.0
2014-Oct-19 12:33N 43°24' E 004°59'0 0.0
2014-Oct-19 11:33N 43°24' E 004°59'0 0.0
2014-Oct-19 10:33N 43°24' E 004°59'0 0.0
2014-Oct-19 09:33N 43°24' E 004°59'0 0.0
2014-Oct-19 08:33N 43°24' E 004°59'0 0.0
2014-Oct-19 07:33N 43°24' E 004°59'0 0.0
2014-Oct-19 06:33N 43°24' E 004°59'0 0.0
2014-Oct-19 05:33N 43°24' E 004°59'0 0.0
2014-Oct-19 04:33N 43°24' E 004°59'0 0.0
2014-Oct-19 03:33N 43°24' E 004°59'0 0.0
2014-Oct-19 02:33N 43°24' E 004°59'0 0.0
2014-Oct-19 01:33N 43°24' E 004°59'0 0.0
2014-Oct-19 00:33N 43°24' E 004°59'0 0.0
2014-Oct-18 23:33N 43°24' E 004°59'0 0.0
2014-Oct-18 22:33N 43°24' E 004°59'0 0.0
2014-Oct-18 21:33N 43°24' E 004°59'0 0.0
2014-Oct-18 20:33N 43°24' E 004°59'0 0.0
2014-Oct-18 19:33N 43°24' E 004°59'0 0.4
2014-Oct-18 18:33N 43°24' E 004°60'0 0.4
2014-Oct-18 17:33N 43°24' E 004°59'0 0.0
2014-Oct-18 16:33N 43°24' E 004°59'0 0.0
2014-Oct-18 15:33N 43°24' E 004°59'0 0.0
2014-Oct-18 14:33N 43°24' E 004°59'0 0.0
2014-Oct-18 13:33N 43°24' E 004°59'0 0.0
2014-Oct-18 12:33N 43°24' E 004°59'0 0.0
2014-Oct-18 11:33N 43°24' E 004°59'0 0.0
2014-Oct-18 10:33N 43°24' E 004°59'0 0.0
2014-Oct-18 09:33N 43°24' E 004°59'0 0.0
2014-Oct-18 08:33N 43°24' E 004°59'0 0.0
2014-Oct-18 07:33N 43°24' E 004°59'3 2.7
2014-Oct-18 06:33N 43°24' E 004°55'2 2.1
2014-Oct-18 05:33N 43°26' E 004°54'0 0.0
2014-Oct-18 04:33N 43°26' E 004°54'0 0.0
2014-Oct-18 03:33N 43°26' E 004°54'1 0.7
2014-Oct-18 02:33N 43°25' E 004°53'0 0.3
2014-Oct-18 01:33N 43°25' E 004°53'1 1.1
2014-Oct-18 00:33N 43°26' E 004°54'0 0.0
2014-Oct-17 23:33N 43°26' E 004°54'0 0.0
2014-Oct-17 22:33N 43°26' E 004°54'0 0.0
2014-Oct-17 21:33N 43°26' E 004°54'0 0.0
2014-Oct-17 20:33N 43°26' E 004°54'0 0.0
2014-Oct-17 19:33N 43°26' E 004°54'0 0.0
2014-Oct-17 18:33N 43°26' E 004°54'3 2.6
2014-Oct-17 17:34N 43°25' E 004°51'2 1.6
2014-Oct-17 16:34N 43°24' E 004°53'2 1.9
2014-Oct-17 15:33N 43°26' E 004°54'0 0.0
2014-Oct-17 14:33N 43°26' E 004°54'0 0.0
2014-Oct-17 13:33N 43°26' E 004°54'0 0.0
2014-Oct-17 12:33N 43°26' E 004°54'0 0.0
2014-Oct-17 11:33N 43°26' E 004°54'0 0.0
2014-Oct-17 10:33N 43°26' E 004°54'1 1.1
2014-Oct-17 09:33N 43°25' E 004°53'1 1.0
2014-Oct-17 08:34N 43°26' E 004°54'0 0.1
2014-Oct-17 07:33N 43°26' E 004°54'0 0.0
2014-Oct-17 06:33N 43°26' E 004°54'0 0.0
2014-Oct-17 05:33N 43°26' E 004°54'0 0.0
2014-Oct-17 04:33N 43°26' E 004°54'1 1.2
2014-Oct-17 03:33N 43°25' E 004°53'1 0.8
2014-Oct-17 02:34N 43°24' E 004°52'1 1.3
2014-Oct-17 01:33N 43°25' E 004°51'2 2.1
2014-Oct-17 00:33N 43°25' E 004°53'0 0.4
2014-Oct-16 23:33N 43°26' E 004°54'0 0.0
2014-Oct-16 22:33N 43°26' E 004°54'0 0.0
2014-Oct-16 21:33N 43°26' E 004°54'0 0.0
2014-Oct-16 20:33N 43°26' E 004°54'0 0.0
2014-Oct-16 19:33N 43°26' E 004°54'0 0.0
2014-Oct-16 18:33N 43°26' E 004°54'0 0.0
2014-Oct-16 17:33N 43°26' E 004°54'0 0.0
2014-Oct-16 16:33N 43°26' E 004°54'0 0.0
2014-Oct-16 15:33N 43°26' E 004°54'0 0.0
2014-Oct-16 14:33N 43°26' E 004°54'0 0.0
2014-Oct-16 13:33N 43°26' E 004°54'0 0.0
2014-Oct-16 12:33N 43°26' E 004°54'0 0.0
2014-Oct-16 11:33N 43°26' E 004°54'0 0.0
2014-Oct-16 10:33N 43°26' E 004°54'0 0.0
2014-Oct-16 09:33N 43°26' E 004°54'0 0.0
2014-Oct-16 08:33N 43°26' E 004°54'0 0.0
2014-Oct-16 07:33N 43°26' E 004°54'0 0.0
2014-Oct-16 06:33N 43°26' E 004°54'0 0.0
2014-Oct-16 05:33N 43°26' E 004°54'0 0.0
2014-Oct-16 04:33N 43°26' E 004°54'0 0.0
2014-Oct-16 03:33N 43°26' E 004°54'2 2.4
2014-Oct-16 02:33N 43°25' E 004°51'1 1.4
2014-Oct-16 01:33N 43°25' E 004°53'1 1.1
2014-Oct-16 00:33N 43°26' E 004°54'0 0.0
2014-Oct-15 23:33N 43°26' E 004°54'0 0.0
2014-Oct-15 22:33N 43°26' E 004°54'0 0.0
2014-Oct-15 21:33N 43°26' E 004°54'0 0.0
2014-Oct-15 20:33N 43°26' E 004°54'0 0.0
2014-Oct-15 19:33N 43°26' E 004°54'0 0.0
2014-Oct-15 18:33N 43°26' E 004°54'3 2.7
2014-Oct-15 17:33N 43°25' E 004°50'3 2.7
2014-Oct-15 16:33N 43°26' E 004°54'0 0.0
2014-Oct-15 15:33N 43°26' E 004°54'0 0.0
2014-Oct-15 14:33N 43°26' E 004°54'0 0.0
2014-Oct-15 13:33N 43°26' E 004°54'0 0.0
2014-Oct-15 12:33N 43°26' E 004°54'0 0.0
2014-Oct-15 11:33N 43°26' E 004°54'1 1.2
2014-Oct-15 10:33N 43°25' E 004°53'0 0.0
2014-Oct-15 09:34N 43°25' E 004°53'1 1.1
2014-Oct-15 08:33N 43°26' E 004°54'0 0.0
2014-Oct-15 07:33N 43°26' E 004°54'0 0.0
2014-Oct-15 06:33N 43°26' E 004°54'0 0.0
2014-Oct-15 05:33N 43°26' E 004°54'0 0.0
2014-Oct-15 04:33N 43°26' E 004°54'0 0.0
2014-Oct-15 03:33N 43°26' E 004°54'0 0.0
2014-Oct-15 02:33N 43°26' E 004°54'0 0.0
2014-Oct-15 01:33N 43°26' E 004°54'0 0.0
2014-Oct-15 00:33N 43°26' E 004°54'0 0.0
2014-Oct-14 23:33N 43°26' E 004°54'0 0.0
2014-Oct-14 22:33N 43°26' E 004°54'0 0.0
2014-Oct-14 21:33N 43°26' E 004°54'0 0.0
2014-Oct-14 20:33N 43°26' E 004°54'2 2.3
2014-Oct-14 19:33N 43°27' E 004°51'2 2.4
2014-Oct-14 18:34N 43°25' E 004°53'1 1.1
2014-Oct-14 17:33N 43°26' E 004°54'0 0.0
2014-Oct-14 16:33N 43°26' E 004°54'0 0.0
2014-Oct-14 15:33N 43°26' E 004°54'0 0.0
2014-Oct-14 14:33N 43°26' E 004°54'0 0.0
2014-Oct-14 13:33N 43°26' E 004°54'0 0.0
2014-Oct-14 12:33N 43°26' E 004°54'0 0.0
2014-Oct-14 11:33N 43°26' E 004°54'0 0.0
2014-Oct-14 10:33N 43°26' E 004°54'0 0.0
2014-Oct-14 09:33N 43°26' E 004°54'0 0.0
2014-Oct-14 08:33N 43°26' E 004°54'0 0.0
2014-Oct-14 07:33N 43°26' E 004°54'0 0.0
2014-Oct-14 06:33N 43°26' E 004°54'0 0.0
2014-Oct-14 05:33N 43°26' E 004°54'0 0.0
2014-Oct-14 04:33N 43°26' E 004°54'0 0.0
2014-Oct-14 03:33N 43°26' E 004°54'0 0.0
2014-Oct-14 02:33N 43°26' E 004°54'0 0.0
2014-Oct-14 01:33N 43°26' E 004°54'0 0.0
2014-Oct-14 00:33N 43°26' E 004°54'0 0.0
2014-Oct-13 23:33N 43°26' E 004°54'4 3.9
2014-Oct-13 22:33N 43°23' E 004°58'6 6.0
2014-Oct-13 21:33N 43°25' E 004°50'3 2.7
2014-Oct-13 20:33N 43°26' E 004°54'0 0.0
2014-Oct-13 19:33N 43°26' E 004°54'0 0.0
2014-Oct-13 18:33N 43°26' E 004°54'0 0.0
2014-Oct-13 17:33N 43°26' E 004°54'0 0.0
2014-Oct-13 16:33N 43°26' E 004°54'0 0.0
2014-Oct-13 15:33N 43°26' E 004°54'0 0.0
2014-Oct-13 14:33N 43°26' E 004°54'0 0.0
2014-Oct-13 13:33N 43°26' E 004°54'0 0.0
2014-Oct-13 12:33N 43°26' E 004°54'0 0.0
2014-Oct-13 11:33N 43°26' E 004°54'0 0.0
2014-Oct-13 10:33N 43°26' E 004°54'0 0.0
2014-Oct-13 09:33N 43°26' E 004°54'0 0.0
2014-Oct-13 08:22N 43°26' E 004°54'1 0.8
2014-Oct-13 07:16N 43°25' E 004°54'2 3.4
2014-Oct-13 06:33N 43°24' E 004°57'5 5.0
2014-Oct-13 05:33N 43°25' E 004°50'2 2.1
2014-Oct-13 04:33N 43°25' E 004°53'1 0.8
2014-Oct-13 03:33N 43°26' E 004°54'0 0.0
2014-Oct-13 02:33N 43°26' E 004°54'0 0.0
2014-Oct-13 01:33N 43°26' E 004°54'0 0.0
2014-Oct-13 00:33N 43°26' E 004°54'0 0.0
2014-Oct-12 23:33N 43°26' E 004°54'0 0.0
2014-Oct-12 22:33N 43°26' E 004°54'3 2.6
2014-Oct-12 21:33N 43°25' E 004°51'3 2.6
2014-Oct-12 20:33N 43°26' E 004°54'0 0.4
2014-Oct-12 19:34N 43°26' E 004°53'0 0.4
2014-Oct-12 18:33N 43°26' E 004°54'0 0.0
2014-Oct-12 17:33N 43°26' E 004°54'0 0.0
2014-Oct-12 16:33N 43°26' E 004°54'0 0.0
2014-Oct-12 15:33N 43°26' E 004°54'0 0.0
2014-Oct-12 14:33N 43°26' E 004°54'0 0.0
2014-Oct-12 13:33N 43°26' E 004°54'  

Dump ship's entire track history